createdAt,value
2017-12-15T00:00:06.367Z,940.47
2017-12-15T00:15:05.843Z,941.86
2017-12-15T00:30:05.050Z,943.17
2017-12-15T00:45:07.583Z,941.67
2017-12-15T01:00:06.186Z,941.14
2017-12-15T01:15:07.832Z,940.33
2017-12-15T01:30:04.509Z,940.15
2017-12-15T01:45:04.911Z,941
2017-12-15T02:00:04.799Z,941.96
2017-12-15T02:15:05.068Z,943.06
2017-12-15T02:30:05.501Z,943.03
2017-12-15T02:45:04.694Z,942.53
2017-12-15T03:00:04.602Z,944.05
2017-12-15T03:15:09.535Z,944.8
2017-12-15T03:30:04.780Z,944.51
2017-12-15T03:45:06.064Z,945.36
2017-12-15T04:00:04.970Z,944.69
2017-12-15T04:15:07.584Z,943.65
2017-12-15T04:30:05.465Z,945.23
2017-12-15T04:45:07.944Z,945.04
2017-12-15T05:00:05.071Z,945.79
2017-12-15T05:15:05.118Z,945.79
2017-12-15T05:30:05.657Z,946.4
2017-12-15T05:45:04.581Z,945.41
2017-12-15T06:00:04.491Z,945.09
2017-12-15T06:15:04.952Z,945.09
2017-12-15T06:30:04.585Z,946.24
2017-12-15T06:45:04.462Z,944.88
2017-12-15T07:00:05.928Z,945.23
2017-12-15T07:15:07.925Z,944.75
2017-12-15T07:30:05.091Z,944.16
2017-12-15T07:45:04.566Z,945.12
2017-12-15T08:00:05.437Z,945.52
2017-12-15T08:15:04.906Z,945.55
2017-12-15T08:30:04.641Z,945.74
2017-12-15T08:45:05.142Z,943.44
2017-12-15T09:00:04.624Z,944.42
2017-12-15T09:15:05.160Z,943.84
2017-12-15T09:30:05.850Z,945.41
2017-12-15T09:45:05.831Z,945.55
2017-12-15T10:00:04.786Z,946.03
2017-12-15T10:15:06.226Z,945.87
2017-12-15T10:30:05.099Z,945.9
2017-12-15T10:45:05.033Z,944.91
2017-12-15T11:00:04.397Z,944.45
2017-12-15T11:15:04.865Z,944.08
2017-12-15T11:30:07.634Z,944.67
2017-12-15T11:45:04.983Z,944.08
2017-12-15T12:00:05.298Z,944.05
2017-12-15T12:15:06.249Z,943.84
2017-12-15T12:30:04.848Z,943.68
2017-12-15T12:45:04.750Z,943.7
2017-12-15T13:00:05.243Z,943.81
2017-12-15T13:15:12.318Z,943.92
2017-12-15T13:30:10.551Z,944
2017-12-15T13:45:07.430Z,943.89
2017-12-15T14:00:04.831Z,943.41
2017-12-15T14:15:04.788Z,949.78
2017-12-15T14:30:04.475Z,949.03
2017-12-15T14:45:04.369Z,948.81
2017-12-15T15:00:04.767Z,947.84
2017-12-15T15:15:05.253Z,948.19
2017-12-15T15:30:07.927Z,948.43
2017-12-15T15:45:05.841Z,948.46
2017-12-15T16:00:05.196Z,948.03
2017-12-15T16:15:07.710Z,948.54
2017-12-15T16:30:07.798Z,948.68
2017-12-15T16:45:04.667Z,948.3
2017-12-15T17:00:05.159Z,948.57
2017-12-15T17:15:04.654Z,949.41
2017-12-15T17:30:05.265Z,949.19
2017-12-15T17:45:05.160Z,949.59
2017-12-15T18:00:04.524Z,949.84
2017-12-15T18:15:05.998Z,949.89
2017-12-15T18:30:07.878Z,949.89
2017-12-15T18:45:05.313Z,949.41
2017-12-15T19:00:08.505Z,950.05
2017-12-15T19:15:05.007Z,950.11
2017-12-15T19:30:05.107Z,950.48
2017-12-15T19:45:05.011Z,950.65
2017-12-15T20:00:07.594Z,944.51
2017-12-15T20:15:04.986Z,944.18
2017-12-15T20:30:05.097Z,943.81
2017-12-15T20:45:04.540Z,950.65
2017-12-15T21:00:04.978Z,950.89
2017-12-15T21:15:04.972Z,944.69
2017-12-15T21:30:05.118Z,944.29
2017-12-15T21:45:05.505Z,944.4
2017-12-15T22:00:04.403Z,944.32
2017-12-15T22:15:04.888Z,944.4
2017-12-15T22:30:04.522Z,944.45
2017-12-15T22:45:05.982Z,944.8
2017-12-15T23:00:04.615Z,945.09
2017-12-15T23:15:04.504Z,945.25
2017-12-15T23:30:05.973Z,944.45
2017-12-15T23:45:08.228Z,946.14
